| time (UTC) | temp F | wind direction | speed knots | gust knots | rain 1hr in | rain 24hr in | rain mn in | humidity % | barometer mb |
| 20260905234839 | 78 | 180 | 1.7 | 1.7 | 0.00 | 0.00 | 0.22 | 98 | 1014.5 |
| 20260905234423 | 79 | 203 | 0.9 | 1.7 | 0.00 | 0.00 | 0.22 | 98 | 1014.5 |
| 20260905234007 | 79 | 203 | 2.6 | 2.6 | 0.00 | 0.00 | 0.22 | 97 | 1014.5 |
| 20260905233553 | 79 | 203 | 1.7 | 1.7 | 0.00 | 0.00 | 0.22 | 96 | 1014.9 |
| 20260905232654 | 79 | 180 | 2.6 | 2.6 | 0.00 | 0.00 | 0.22 | 95 | 1014.9 |
| 20260905232226 | 79 | 203 | 2.6 | 2.6 | 0.00 | 0.00 | 0.22 | 95 | 1014.5 |
| 20260905231756 | 80 | 180 | 1.7 | 2.6 | 0.00 | 0.00 | 0.22 | 94 | 1014.9 |
| 20260905230911 | 80 | 225 | 1.7 | 1.7 | 0.00 | 0.00 | 0.22 | 92 | 1014.9 |
| 20260905230441 | 81 | 180 | 0.9 | 1.7 | 0.00 | 0.00 | 0.22 | 92 | 1014.9 |
| 20260905230010 | 80 | 180 | 1.7 | 1.7 | 0.00 | 0.00 | 0.22 | 92 | 1014.9 |
| 20260905225055 | 82 | 180 | 1.7 | 2.6 | 0.00 | 0.00 | 0.22 | 89 | 1014.5 |
| 20260905224638 | 81 | 248 | 1.7 | 2.6 | 0.00 | 0.00 | 0.22 | 89 | 1014.5 |
| 20260905224220 | 82 | 180 | 2.6 | 2.6 | 0.00 | 0.00 | 0.22 | 87 | 1014.5 |
| 20260905223802 | 83 | 180 | 1.7 | 2.6 | 0.00 | 0.00 | 0.22 | 86 | 1014.5 |
| 20260905223333 | 83 | 180 | 1.7 | 2.6 | 0.00 | 0.00 | 0.22 | 84 | 1014.5 |
| 20260905222917 | 85 | 180 | 1.7 | 1.7 | 0.00 | 0.00 | 0.22 | 79 | 1014.5 |
| 20260905222503 | 87 | 203 | 1.7 | 1.7 | 0.00 | 0.00 | 0.22 | 75 | 1014.5 |
| 20260905222047 | 87 | 23 | 0.0 | 2.6 | 0.00 | 0.00 | 0.22 | 71 | 1014.5 |
| 20260905221632 | 87 | 0 | 0.9 | 4.3 | 0.00 | 0.00 | 0.22 | 71 | 1014.5 |
| 20260905220730 | 88 | 23 | 1.7 | 1.7 | 0.00 | 0.00 | 0.22 | 68 | 1014.5 |
| 20260905215838 | 88 | 23 | 1.7 | 2.6 | 0.00 | 0.00 | 0.22 | 69 | 1014.5 |
| 20260905214951 | 90 | 113 | 3.5 | 3.5 | 0.00 | 0.00 | 0.22 | 67 | 1014.5 |
| 20260905214521 | 90 | 0 | 1.7 | 3.5 | 0.00 | 0.00 | 0.22 | 65 | 1014.5 |
| 20260905214105 | 90 | 23 | 2.6 | 4.3 | 0.00 | 0.00 | 0.22 | 66 | 1014.5 |
| 20260905213636 | 91 | 45 | 4.3 | 4.3 | 0.00 | 0.00 | 0.22 | 65 | 1014.5 |
| 20260905212252 | 91 | 0 | 3.5 | 4.3 | 0.00 | 0.00 | 0.22 | 66 | 1014.2 |
| 20260905211407 | 92 | 45 | 3.5 | 4.3 | 0.00 | 0.00 | 0.22 | 65 | 1014.2 |
| 20260905210950 | 94 | 45 | 2.6 | 6.1 | 0.00 | 0.00 | 0.22 | 62 | 1013.8 |
| 20260905210536 | 94 | 23 | 3.5 | 5.2 | 0.00 | 0.00 | 0.22 | 61 | 1013.8 |
| 20260905210105 | 94 | 45 | 3.5 | 5.2 | 0.00 | 0.00 | 0.22 | 62 | 1013.8 |
| 20260905205617 | 93 | 23 | 5.2 | 6.1 | 0.00 | 0.00 | 0.22 | 63 | 1013.8 |
| 20260905204719 | 91 | 0 | 4.3 | 4.3 | 0.00 | 0.00 | 0.22 | 65 | 1013.8 |
| 20260905204301 | 92 | 23 | 5.2 | 5.2 | 0.00 | 0.00 | 0.22 | 63 | 1013.8 |
| 20260905203845 | 92 | 23 | 3.5 | 4.3 | 0.00 | 0.00 | 0.22 | 64 | 1013.8 |
| 20260905203430 | 92 | 0 | 1.7 | 3.5 | 0.00 | 0.00 | 0.22 | 64 | 1013.8 |
| 20260905203015 | 91 | 225 | 2.6 | 3.5 | 0.00 | 0.00 | 0.22 | 65 | 1013.8 |
| 20260905202601 | 91 | 0 | 3.5 | 3.5 | 0.00 | 0.00 | 0.22 | 64 | 1014.2 |
| 20260905202146 | 96 | 23 | 2.6 | 2.6 | 0.00 | 0.00 | 0.22 | 58 | 1014.2 |
| 20260905201732 | 96 | 23 | 0.9 | 1.7 | 0.00 | 0.00 | 0.22 | 58 | 1013.8 |
| 20260905201316 | 96 | 68 | 2.6 | 2.6 | 0.00 | 0.00 | 0.22 | 58 | 1013.8 |
| 20260905200846 | 97 | 23 | 2.6 | 2.6 | 0.00 | 0.00 | 0.22 | 56 | 1013.8 |
| 20260905200401 | 97 | 23 | 2.6 | 5.2 | 0.00 | 0.00 | 0.22 | 56 | 1014.2 |
| 20260905195946 | 96 | 23 | 4.3 | 4.3 | 0.00 | 0.00 | 0.22 | 58 | 1014.2 |
| 20260905195516 | 94 | 338 | 0.9 | 2.6 | 0.00 | 0.00 | 0.22 | 59 | 1014.2 |
| 20260905195100 | 95 | 23 | 1.7 | 5.2 | 0.00 | 0.00 | 0.22 | 58 | 1014.2 |
| 20260905194155 | 97 | 23 | 2.6 | 2.6 | 0.00 | 0.00 | 0.22 | 56 | 1014.2 |
| 20260905193708 | 98 | 45 | 4.3 | 4.3 | 0.00 | 0.00 | 0.22 | 56 | 1014.5 |
| 20260905193252 | 94 | 158 | 1.7 | 1.7 | 0.00 | 0.00 | 0.22 | 60 | 1014.5 |
| 20260905191933 | 97 | 23 | 1.7 | 4.3 | 0.00 | 0.00 | 0.22 | 56 | 1014.9 |
| 20260905191049 | 96 | 315 | 1.7 | 3.5 | 0.00 | 0.00 | 0.22 | 58 | 1014.9 |
| 20260905190617 | 92 | 45 | 2.6 | 3.5 | 0.00 | 0.00 | 0.22 | 63 | 1014.9 |
| 20260905185730 | 97 | 23 | 1.7 | 2.6 | 0.00 | 0.00 | 0.22 | 58 | 1015.2 |
| 20260905185314 | 97 | 338 | 2.6 | 4.3 | 0.00 | 0.00 | 0.22 | 57 | 1015.2 |
| 20260905184843 | 96 | 338 | 3.5 | 3.5 | 0.00 | 0.00 | 0.22 | 58 | 1015.5 |
| 20260905184429 | 98 | 23 | 1.7 | 3.5 | 0.00 | 0.00 | 0.22 | 56 | 1015.5 |
| 20260905183958 | 97 | 0 | 1.7 | 2.6 | 0.00 | 0.00 | 0.22 | 58 | 1015.5 |
| 20260905183527 | 94 | 90 | 1.7 | 4.3 | 0.00 | 0.00 | 0.22 | 63 | 1015.9 |
| 20260905183110 | 95 | 338 | 0.0 | 2.6 | 0.00 | 0.00 | 0.22 | 62 | 1015.9 |
| 20260905182652 | 92 | 180 | 2.6 | 2.6 | 0.00 | 0.00 | 0.22 | 65 | 1015.9 |
| 20260905182223 | 90 | 180 | 2.6 | 2.6 | 0.00 | 0.00 | 0.22 | 70 | 1015.9 |
| 20260905181805 | 90 | 180 | 1.7 | 1.7 | 0.00 | 0.00 | 0.22 | 70 | 1015.9 |
| 20260905180914 | 91 | 23 | 4.3 | 6.1 | 0.00 | 0.00 | 0.22 | 69 | 1015.9 |
| 20260905180012 | 90 | 338 | 2.6 | 2.6 | 0.00 | 0.00 | 0.22 | 72 | 1015.9 |
| 20260905175557 | 90 | 23 | 4.3 | 4.3 | 0.00 | 0.00 | 0.22 | 74 | 1016.2 |
| 20260905175143 | 89 | 45 | 4.3 | 5.2 | 0.00 | 0.00 | 0.22 | 76 | 1016.2 |
| 20260905174726 | 90 | 338 | 1.7 | 1.7 | 0.00 | 0.00 | 0.22 | 75 | 1016.2 |
| 20260905174257 | 88 | 225 | 0.0 | 0.9 | 0.00 | 0.00 | 0.22 | 76 | 1015.9 |
| 20260905173842 | 88 | 270 | 0.9 | 2.6 | 0.00 | 0.00 | 0.22 | 75 | 1015.9 |
| 20260905172955 | 87 | 23 | 1.7 | 5.2 | 0.00 | 0.00 | 0.22 | 79 | 1016.2 |
| 20260905172539 | 88 | 23 | 2.6 | 3.5 | 0.00 | 0.00 | 0.22 | 80 | 1016.2 |
| 20260905172109 | 87 | 0 | 1.7 | 2.6 | 0.00 | 0.00 | 0.22 | 80 | 1015.9 |
| 20260905171651 | 86 | 248 | 0.9 | 3.5 | 0.00 | 0.00 | 0.22 | 82 | 1015.9 |
| 20260905171238 | 86 | 158 | 1.7 | 2.6 | 0.00 | 0.00 | 0.22 | 83 | 1015.9 |
| 20260905170805 | 86 | 225 | 3.5 | 3.5 | 0.00 | 0.00 | 0.22 | 85 | 1015.9 |
| 20260905170335 | 85 | 158 | 2.6 | 2.6 | 0.00 | 0.00 | 0.22 | 85 | 1016.2 |
| 20260905165918 | 85 | 180 | 0.0 | 3.5 | 0.00 | 0.00 | 0.22 | 85 | 1016.2 |
| 20260905165501 | 85 | 203 | 0.9 | 1.7 | 0.00 | 0.00 | 0.22 | 86 | 1016.5 |
| 20260905165045 | 85 | 315 | 0.9 | 2.6 | 0.00 | 0.00 | 0.22 | 85 | 1016.5 |
| 20260905164629 | 83 | 248 | 0.0 | 4.3 | 0.00 | 0.00 | 0.22 | 88 | 1016.5 |
| 20260905164214 | 83 | 203 | 3.5 | 3.5 | 0.00 | 0.00 | 0.22 | 89 | 1016.5 |
| 20260905163742 | 82 | 225 | 1.7 | 2.6 | 0.00 | 0.00 | 0.22 | 90 | 1016.2 |
| 20260905163312 | 82 | 225 | 0.9 | 0.9 | 0.00 | 0.00 | 0.22 | 92 | 1016.5 |
| 20260905162840 | 81 | 180 | 1.7 | 2.6 | 0.00 | 0.00 | 0.22 | 92 | 1016.2 |
| 20260905161951 | 81 | 225 | 2.6 | 2.6 | 0.00 | 0.00 | 0.22 | 93 | 1016.2 |
| 20260905161536 | 81 | 180 | 2.6 | 3.5 | 0.00 | 0.00 | 0.22 | 93 | 1016.5 |
| 20260905160649 | 80 | 180 | 2.6 | 5.2 | 0.00 | 0.00 | 0.22 | 94 | 1016.2 |
| 20260905155332 | 80 | 203 | 2.6 | 2.6 | 0.00 | 0.00 | 0.22 | 95 | 1016.5 |
| 20260905154847 | 80 | 158 | 0.0 | 2.6 | 0.00 | 0.00 | 0.22 | 93 | 1016.9 |
| 20260905154417 | 81 | 338 | 2.6 | 2.6 | 0.00 | 0.00 | 0.22 | 92 | 1016.9 |
| 20260905153527 | 79 | 23 | 2.6 | 2.6 | 0.00 | 0.00 | 0.22 | 95 | 1016.9 |
| 20260905153111 | 79 | 180 | 3.5 | 3.5 | 0.00 | 0.00 | 0.22 | 98 | 1016.9 |
| 20260905152653 | 78 | 23 | 3.5 | 4.3 | 0.00 | 0.00 | 0.22 | 98 | 1016.9 |
| 20260905152236 | 78 | 203 | 2.6 | 3.5 | 0.00 | 0.00 | 0.22 | 99 | 1016.9 |
| 20260905151347 | 78 | 270 | 1.7 | 3.5 | 0.00 | 0.00 | 0.22 | 99 | 1016.9 |
| 20260905150931 | 78 | 225 | 1.7 | 1.7 | 0.00 | 0.00 | 0.22 | 99 | 1016.5 |
| 20260905150513 | 78 | 113 | 0.0 | 0.0 | 0.00 | 0.00 | 0.22 | 98 | 1016.5 |
| 20260905150058 | 78 | 270 | 0.9 | 2.6 | 0.00 | 0.00 | 0.22 | 99 | 1016.2 |
| 20260905145641 | 78 | 225 | 2.6 | 2.6 | 0.00 | 0.00 | 0.22 | 99 | 1016.5 |
| 20260905145225 | 78 | 225 | 2.6 | 2.6 | 0.00 | 0.00 | 0.22 | 99 | 1016.9 |
| 20260905144808 | 79 | 203 | 0.9 | 1.7 | 0.00 | 0.00 | 0.22 | 97 | 1016.9 |
| 20260905144352 | 79 | 180 | 1.7 | 3.5 | 0.00 | 0.00 | 0.22 | 97 | 1016.9 |
| 20260905143935 | 80 | 203 | 0.0 | 2.6 | 0.00 | 0.00 | 0.22 | 96 | 1017.2 |
| 20260905143504 | 80 | 113 | 0.9 | 3.5 | 0.00 | 0.00 | 0.22 | 96 | 1017.2 |
| 20260905143032 | 78 | 293 | 0.0 | 0.0 | 0.00 | 0.00 | 0.22 | 99 | 1017.2 |
| 20260905142615 | 77 | 180 | 0.0 | 2.6 | 0.00 | 0.00 | 0.22 | 99 | 1017.2 |
| 20260905142159 | 77 | 180 | 1.7 | 2.6 | 0.00 | 0.00 | 0.22 | 99 | 1017.6 |
| 20260905141740 | 77 | 225 | 0.0 | 1.7 | 0.00 | 0.00 | 0.22 | 99 | 1017.9 |
| 20260905141325 | 76 | 203 | 0.9 | 0.9 | 0.00 | 0.00 | 0.22 | 99 | 1017.6 |
| 20260905140838 | 74 | 203 | 0.9 | 2.6 | 0.00 | 0.00 | 0.22 | 99 | 1017.9 |
| 20260905140422 | 74 | 180 | 0.0 | 0.0 | 0.00 | 0.00 | 0.22 | 99 | 1017.9 |
| 20260905140005 | 73 | 203 | 0.0 | 0.0 | 0.00 | 0.00 | 0.22 | 99 | 1018.2 |
| 20260905135547 | 73 | 158 | 0.0 | 0.0 | 0.00 | 0.00 | 0.22 | 99 | 1018.2 |
| 20260905135130 | 73 | 248 | 1.7 | 1.7 | 0.00 | 0.00 | 0.21 | 99 | 1018.2 |
| 20260905134658 | 73 | 293 | 0.0 | 0.0 | 0.00 | 0.00 | 0.18 | 99 | 1018.6 |
| 20260905134242 | 73 | 203 | 0.0 | 0.9 | 0.00 | 0.00 | 0.17 | 99 | 1018.2 |
| 20260905132919 | 73 | 338 | 0.0 | 0.0 | 0.00 | 0.00 | 0.17 | 99 | 1018.2 |
| 20260905132448 | 73 | 45 | 0.0 | 0.0 | 0.00 | 0.00 | 0.17 | 99 | 1018.2 |
| 20260905132017 | 73 | 338 | 0.0 | 0.0 | 0.00 | 0.00 | 0.17 | 99 | 1017.9 |
| 20260905131546 | 73 | 293 | 0.0 | 0.0 | 0.00 | 0.00 | 0.17 | 99 | 1017.9 |
| 20260905131129 | 73 | 113 | 0.0 | 1.7 | 0.00 | 0.00 | 0.17 | 99 | 1017.9 |
| 20260905130713 | 73 | 45 | 0.9 | 4.3 | 0.00 | 0.00 | 0.17 | 99 | 1017.6 |
| 20260905125822 | 73 | 90 | 5.2 | 5.2 | 0.00 | 0.00 | 0.16 | 99 | 1018.2 |
| 20260905125404 | 73 | 45 | 8.7 | 8.7 | 0.00 | 0.00 | 0.02 | 99 | 1017.9 |
| 20260905124933 | 73 | 0 | 2.6 | 2.6 | 0.00 | 0.00 | 0.00 | 99 | 1017.9 |
| 20260905124502 | 73 | 248 | 0.0 | 0.0 | 0.00 | 0.00 | 0.00 | 99 | 1017.6 |
| 20260905124046 | 72 | 225 | 0.0 | 0.0 | 0.00 | 0.00 | 0.00 | 99 | 1017.2 |
| 20260905123616 | 72 | 225 | 0.0 | 0.9 | 0.00 | 0.00 | 0.00 | 99 | 1017.2 |
| 20260905123200 | 72 | 23 | 1.7 | 2.6 | 0.00 | 0.00 | 0.00 | 99 | 1016.9 |
| 20260905122743 | 72 | 293 | 0.0 | 6.1 | 0.00 | 0.00 | 0.00 | 99 | 1017.2 |
| 20260905121838 | 72 | 45 | 7.0 | 7.0 | 0.00 | 0.00 | 0.00 | 99 | 1016.2 |
| 20260905120507 | 72 | 0 | 0.0 | 0.0 | 0.00 | 0.00 | 0.00 | 99 | 1016.2 |
| 20260905120050 | 72 | 225 | 0.0 | 0.0 | 0.00 | 0.00 | 0.00 | 99 | 1015.9 |
| 20260905115604 | 72 | 225 | 0.0 | 0.0 | 0.00 | 0.00 | 0.00 | 99 | 1015.9 |
| 20260905115132 | 71 | 248 | 0.0 | 0.0 | 0.00 | 0.00 | 0.00 | 99 | 1015.9 |
| 20260905114715 | 71 | 23 | 0.0 | 0.0 | 0.00 | 0.00 | 0.00 | 99 | 1015.9 |
| 20260905114245 | 71 | 23 | 0.0 | 0.0 | 0.00 | 0.00 | 0.00 | 99 | 1015.9 |
| 20260905113830 | 71 | 23 | 0.0 | 0.0 | 0.00 | 0.00 | 0.00 | 99 | 1015.9 |
| 20260905112459 | 71 | 315 | 0.0 | 0.0 | 0.00 | 0.00 | 0.00 | 99 | 1015.9 |
| 20260905111614 | 71 | 248 | 0.0 | 0.0 | 0.00 | 0.00 | 0.00 | 99 | 1015.9 |
| 20260905111157 | 71 | 293 | 0.0 | 0.0 | 0.00 | 0.00 | 0.00 | 99 | 1015.5 |
| 20260905110312 | 71 | 338 | 0.0 | 0.0 | 0.00 | 0.00 | 0.00 | 99 | 1015.9 |
| 20260905105857 | 71 | 293 | 0.0 | 0.0 | 0.00 | 0.00 | 0.00 | 99 | 1015.5 |
| 20260905104939 | 71 | 225 | 0.0 | 0.0 | 0.00 | 0.00 | 0.00 | 99 | 1015.9 |
| 20260905104523 | 71 | 225 | 0.0 | 0.0 | 0.00 | 0.00 | 0.00 | 99 | 1015.9 |
| 20260905104107 | 71 | 225 | 0.0 | 0.0 | 0.00 | 0.00 | 0.00 | 99 | 1015.5 |
| 20260905103651 | 71 | 248 | 0.0 | 0.0 | 0.00 | 0.00 | 0.00 | 99 | 1015.9 |
| 20260905103220 | 71 | 270 | 0.0 | 0.0 | 0.00 | 0.00 | 0.00 | 99 | 1015.5 |
| 20260905102335 | 71 | 315 | 0.0 | 0.0 | 0.00 | 0.00 | 0.00 | 99 | 1015.9 |
| 20260905101450 | 71 | 0 | 0.0 | 0.0 | 0.00 | 0.00 | 0.00 | 99 | 1015.5 |
| 20260905100047 | 71 | 338 | 0.0 | 0.0 | 0.00 | 0.00 | 0.00 | 99 | 1015.5 |
| 20260905095630 | 71 | 315 | 0.0 | 0.0 | 0.00 | 0.00 | 0.00 | 99 | 1015.5 |
| 20260905095211 | 71 | 270 | 0.0 | 0.0 | 0.00 | 0.00 | 0.00 | 99 | 1015.5 |
| 20260905094739 | 71 | 203 | 0.0 | 0.0 | 0.00 | 0.00 | 0.00 | 99 | 1015.5 |
| 20260905094309 | 71 | 248 | 0.0 | 0.0 | 0.00 | 0.00 | 0.00 | 99 | 1015.5 |
| 20260905093852 | 71 | 270 | 0.0 | 0.0 | 0.00 | 0.00 | 0.00 | 99 | 1015.5 |
| 20260905093437 | 71 | 270 | 0.0 | 0.0 | 0.00 | 0.00 | 0.00 | 99 | 1015.5 |
| 20260905093021 | 71 | 248 | 0.0 | 0.0 | 0.00 | 0.00 | 0.00 | 99 | 1015.9 |
| 20260905092604 | 71 | 270 | 0.0 | 0.0 | 0.00 | 0.00 | 0.00 | 99 | 1015.9 |
| 20260905092133 | 71 | 338 | 0.0 | 0.0 | 0.00 | 0.00 | 0.00 | 99 | 1015.5 |
| 20260905091703 | 71 | 158 | 0.0 | 0.0 | 0.00 | 0.00 | 0.00 | 99 | 1015.5 |
| 20260905091248 | 71 | 225 | 0.0 | 0.0 | 0.00 | 0.00 | 0.00 | 99 | 1015.5 |
| 20260905090834 | 71 | 203 | 0.0 | 0.0 | 0.00 | 0.00 | 0.00 | 99 | 1015.5 |
| 20260905085950 | 71 | 225 | 0.0 | 0.0 | 0.00 | 0.00 | 0.00 | 99 | 1015.5 |
| 20260905085537 | 72 | 225 | 0.0 | 0.0 | 0.00 | 0.00 | 0.00 | 99 | 1015.5 |
| 20260905084653 | 72 | 0 | 0.0 | 0.0 | 0.00 | 0.00 | 0.00 | 99 | 1015.5 |
| 20260905084237 | 72 | 23 | 0.0 | 0.0 | 0.00 | 0.00 | 0.00 | 99 | 1015.5 |
| 20260905083821 | 72 | 23 | 0.0 | 0.0 | 0.00 | 0.00 | 0.00 | 99 | 1015.5 |
| 20260905083351 | 72 | 270 | 0.0 | 0.0 | 0.00 | 0.00 | 0.00 | 99 | 1015.5 |
| 20260905082936 | 72 | 0 | 0.0 | 0.0 | 0.00 | 0.00 | 0.00 | 99 | 1015.5 |
| 20260905082519 | 72 | 293 | 0.0 | 0.0 | 0.00 | 0.00 | 0.00 | 99 | 1015.5 |
| 20260905082103 | 72 | 270 | 0.0 | 0.0 | 0.00 | 0.00 | 0.00 | 99 | 1015.5 |
| 20260905081647 | 72 | 338 | 0.0 | 0.0 | 0.00 | 0.00 | 0.00 | 99 | 1015.5 |
| 20260905081231 | 72 | 248 | 0.0 | 0.0 | 0.00 | 0.00 | 0.00 | 99 | 1015.5 |
| 20260905080810 | 72 | 270 | 0.0 | 0.0 | 0.00 | 0.00 | 0.00 | 99 | 1015.5 |
| 20260905080340 | 72 | 225 | 0.0 | 0.0 | 0.00 | 0.00 | 0.00 | 99 | 1015.5 |
| 20260905075923 | 72 | 270 | 0.0 | 0.0 | 0.00 | 0.00 | 0.00 | 99 | 1015.5 |
| 20260905075506 | 72 | 23 | 0.0 | 0.0 | 0.00 | 0.00 | 0.00 | 99 | 1015.5 |
| 20260905075034 | 72 | 225 | 0.0 | 0.0 | 0.00 | 0.00 | 0.00 | 99 | 1015.9 |
| 20260905074618 | 72 | 225 | 0.0 | 0.0 | 0.00 | 0.00 | 0.00 | 99 | 1015.9 |
| 20260905074146 | 72 | 203 | 0.0 | 0.0 | 0.00 | 0.00 | 0.00 | 99 | 1015.9 |
| 20260905073726 | 72 | 270 | 0.0 | 0.0 | 0.00 | 0.00 | 0.00 | 99 | 1015.9 |
| 20260905072825 | 72 | 338 | 0.0 | 0.0 | 0.00 | 0.00 | 0.00 | 99 | 1015.9 |
| 20260905072409 | 72 | 270 | 0.0 | 0.0 | 0.00 | 0.00 | 0.00 | 99 | 1016.2 |
| 20260905071939 | 72 | 270 | 0.0 | 0.0 | 0.00 | 0.00 | 0.00 | 99 | 1016.2 |
| 20260905071508 | 72 | 225 | 0.0 | 0.0 | 0.00 | 0.00 | 0.00 | 99 | 1016.2 |
| 20260905070623 | 72 | 225 | 0.0 | 0.0 | 0.00 | 0.00 | 0.00 | 99 | 1016.2 |
| 20260905070207 | 72 | 68 | 0.0 | 0.0 | 0.00 | 0.00 | 0.00 | 99 | 1016.2 |
| 20260905065752 | 72 | 270 | 0.0 | 0.0 | 0.00 | 0.00 | 0.00 | 99 | 1016.2 |
| 20260905065336 | 72 | 225 | 0.0 | 0.0 | 0.00 | 0.00 | 0.00 | 99 | 1016.5 |
| 20260905064921 | 72 | 225 | 0.0 | 0.0 | 0.00 | 0.00 | 0.00 | 99 | 1016.5 |
| 20260905064505 | 72 | 270 | 0.0 | 0.0 | 0.00 | 0.00 | 0.00 | 99 | 1016.5 |
| 20260905064050 | 72 | 270 | 0.0 | 0.0 | 0.00 | 0.00 | 0.00 | 99 | 1016.9 |
| 20260905063634 | 72 | 270 | 0.0 | 0.0 | 0.00 | 0.00 | 0.00 | 99 | 1016.9 |
| 20260905063219 | 72 | 23 | 0.0 | 0.0 | 0.00 | 0.00 | 0.00 | 99 | 1016.9 |
| 20260905062305 | 72 | 270 | 0.0 | 0.0 | 0.00 | 0.00 | 0.00 | 99 | 1016.9 |
| 20260905061830 | 72 | 248 | 0.0 | 0.0 | 0.00 | 0.00 | 0.00 | 99 | 1017.2 |
| 20260905061412 | 72 | 180 | 0.0 | 0.0 | 0.00 | 0.00 | 0.00 | 99 | 1017.2 |
| 20260905060955 | 72 | 270 | 0.0 | 0.0 | 0.00 | 0.00 | 0.00 | 99 | 1017.2 |
| 20260905060538 | 72 | 270 | 0.0 | 0.0 | 0.00 | 0.00 | 0.00 | 99 | 1017.2 |
| 20260905060122 | 72 | 270 | 0.0 | 0.0 | 0.00 | 0.00 | 0.00 | 99 | 1017.2 |
| 20260905055705 | 72 | 225 | 0.0 | 0.0 | 0.00 | 0.00 | 0.00 | 99 | 1017.2 |
| 20260905055249 | 73 | 225 | 0.0 | 0.0 | 0.00 | 0.00 | 0.00 | 99 | 1017.6 |
| 20260905054833 | 73 | 203 | 0.0 | 0.0 | 0.00 | 0.00 | 0.00 | 99 | 1017.6 |
| 20260905054419 | 73 | 225 | 0.0 | 0.0 | 0.00 | 0.00 | 0.00 | 99 | 1017.6 |
| 20260905054001 | 73 | 270 | 0.0 | 0.0 | 0.00 | 0.00 | 0.00 | 99 | 1017.6 |
| 20260905053115 | 73 | 270 | 0.0 | 0.0 | 0.00 | 0.00 | 0.00 | 99 | 1017.6 |
| 20260905052644 | 73 | 248 | 0.0 | 0.0 | 0.00 | 0.00 | 0.00 | 99 | 1017.6 |
| 20260905052229 | 73 | 180 | 0.0 | 0.0 | 0.00 | 0.00 | 0.00 | 99 | 1017.6 |
| 20260905051812 | 73 | 248 | 0.0 | 0.0 | 0.00 | 0.00 | 0.00 | 99 | 1017.9 |
| 20260905050912 | 73 | 225 | 0.0 | 0.0 | 0.00 | 0.00 | 0.00 | 99 | 1017.9 |
| 20260905050426 | 73 | 203 | 0.0 | 0.0 | 0.00 | 0.00 | 0.00 | 99 | 1017.9 |
| 20260905050010 | 73 | 180 | 0.0 | 0.0 | 0.00 | 0.00 | 0.00 | 99 | 1017.9 |
| 20260905045554 | 73 | 225 | 0.0 | 0.0 | 0.00 | 0.00 | 0.00 | 99 | 1017.9 |
| 20260905044237 | 73 | 225 | 0.0 | 0.0 | 0.00 | 0.00 | 0.00 | 99 | 1017.9 |
| 20260905043823 | 73 | 225 | 0.0 | 0.0 | 0.00 | 0.00 | 0.00 | 99 | 1017.9 |
| 20260905043405 | 73 | 225 | 0.0 | 0.0 | 0.00 | 0.00 | 0.00 | 99 | 1017.9 |
| 20260905042951 | 73 | 225 | 0.0 | 0.0 | 0.00 | 0.00 | 0.00 | 99 | 1017.9 |
| 20260905042048 | 73 | 225 | 0.0 | 0.0 | 0.00 | 0.00 | 0.00 | 99 | 1017.9 |
| 20260905041617 | 73 | 203 | 0.0 | 0.0 | 0.00 | 0.00 | 0.00 | 99 | 1017.6 |
| 20260905041200 | 73 | 225 | 0.0 | 0.0 | 0.00 | 0.00 | 0.00 | 99 | 1017.9 |
| 20260905040743 | 73 | 203 | 0.0 | 0.0 | 0.00 | 0.00 | 0.00 | 99 | 1017.9 |
| 20260905040311 | 73 | 203 | 0.0 | 0.0 | 0.00 | 0.00 | 0.00 | 99 | 1017.9 |
| 20260905035839 | 73 | 203 | 0.0 | 0.0 | 0.00 | 0.00 | 0.01 | 99 | 1017.9 |
| 20260905035424 | 73 | 225 | 0.0 | 0.0 | 0.00 | 0.00 | 0.01 | 99 | 1017.9 |
| 20260905035008 | 73 | 225 | 0.0 | 0.0 | 0.00 | 0.00 | 0.01 | 99 | 1017.9 |
| 20260905034553 | 73 | 203 | 0.0 | 0.0 | 0.00 | 0.00 | 0.01 | 99 | 1017.9 |
| 20260905034136 | 74 | 203 | 0.0 | 0.0 | 0.00 | 0.00 | 0.01 | 99 | 1017.9 |
| 20260905033721 | 74 | 203 | 0.0 | 0.0 | 0.00 | 0.00 | 0.01 | 99 | 1017.6 |
| 20260905033300 | 74 | 203 | 0.0 | 0.0 | 0.00 | 0.00 | 0.01 | 99 | 1017.6 |
| 20260905032842 | 74 | 203 | 0.0 | 0.0 | 0.00 | 0.00 | 0.01 | 99 | 1017.6 |
| 20260905032411 | 74 | 225 | 0.0 | 0.0 | 0.00 | 0.00 | 0.01 | 99 | 1017.6 |
| 20260905031520 | 74 | 225 | 0.0 | 0.0 | 0.00 | 0.00 | 0.01 | 99 | 1017.6 |
| 20260905031049 | 74 | 225 | 0.0 | 0.0 | 0.00 | 0.00 | 0.01 | 99 | 1017.2 |
| 20260905030618 | 74 | 225 | 0.0 | 0.0 | 0.00 | 0.00 | 0.01 | 99 | 1017.2 |
| 20260905030147 | 74 | 225 | 0.0 | 0.0 | 0.00 | 0.00 | 0.01 | 99 | 1017.2 |
| 20260905025729 | 74 | 225 | 0.0 | 0.0 | 0.00 | 0.00 | 0.01 | 99 | 1017.6 |
| 20260905025314 | 74 | 225 | 0.0 | 0.0 | 0.00 | 0.00 | 0.01 | 99 | 1017.2 |
| 20260905024859 | 74 | 293 | 0.0 | 0.0 | 0.00 | 0.00 | 0.01 | 99 | 1017.2 |
| 20260905024443 | 74 | 270 | 0.0 | 0.0 | 0.00 | 0.00 | 0.01 | 99 | 1017.2 |
| 20260905023539 | 75 | 180 | 0.0 | 0.0 | 0.00 | 0.00 | 0.01 | 99 | 1017.2 |
| 20260905023051 | 75 | 248 | 0.0 | 0.0 | 0.00 | 0.00 | 0.01 | 99 | 1017.2 |
| 20260905022621 | 75 | 248 | 0.0 | 0.0 | 0.00 | 0.00 | 0.01 | 99 | 1017.6 |
| 20260905022204 | 75 | 203 | 0.0 | 0.0 | 0.00 | 0.00 | 0.01 | 99 | 1017.6 |
| 20260905021730 | 75 | 180 | 0.0 | 0.0 | 0.00 | 0.00 | 0.01 | 99 | 1017.6 |
| 20260905021312 | 75 | 203 | 0.0 | 0.0 | 0.00 | 0.00 | 0.01 | 99 | 1017.6 |
| 20260905020857 | 75 | 270 | 0.0 | 0.0 | 0.00 | 0.00 | 0.01 | 99 | 1017.6 |
| 20260905020442 | 75 | 293 | 0.0 | 0.0 | 0.00 | 0.00 | 0.01 | 99 | 1017.6 |
| 20260905020026 | 75 | 225 | 0.0 | 0.0 | 0.00 | 0.00 | 0.01 | 99 | 1017.2 |
| 20260905015610 | 76 | 203 | 0.0 | 0.0 | 0.00 | 0.00 | 0.01 | 99 | 1017.6 |
| 20260905015140 | 76 | 225 | 0.0 | 0.0 | 0.00 | 0.00 | 0.01 | 99 | 1017.6 |
| 20260905014252 | 76 | 203 | 0.0 | 0.0 | 0.00 | 0.00 | 0.01 | 99 | 1017.2 |
| 20260905013836 | 76 | 203 | 0.0 | 0.0 | 0.00 | 0.00 | 0.01 | 99 | 1017.2 |
| 20260905013420 | 76 | 203 | 0.0 | 0.0 | 0.00 | 0.00 | 0.01 | 99 | 1017.2 |
| 20260905012532 | 77 | 225 | 0.0 | 0.0 | 0.00 | 0.00 | 0.01 | 99 | 1017.2 |
| 20260905012116 | 77 | 225 | 0.0 | 0.0 | 0.00 | 0.00 | 0.01 | 99 | 1017.2 |
| 20260905011657 | 77 | 203 | 0.0 | 1.7 | 0.00 | 0.00 | 0.01 | 99 | 1016.9 |
| 20260905010753 | 77 | 203 | 1.7 | 1.7 | 0.00 | 0.00 | 0.01 | 99 | 1016.5 |
| 20260905010336 | 77 | 225 | 0.9 | 1.7 | 0.00 | 0.00 | 0.01 | 99 | 1016.5 |
| 20260905005919 | 78 | 203 | 0.0 | 0.0 | 0.00 | 0.00 | 0.01 | 99 | 1016.5 |
| 20260905005503 | 78 | 203 | 0.0 | 0.0 | 0.00 | 0.00 | 0.01 | 99 | 1016.2 |
| 20260905004616 | 78 | 225 | 0.0 | 0.0 | 0.00 | 0.00 | 0.01 | 99 | 1015.9 |
| 20260905004159 | 78 | 203 | 0.0 | 0.0 | 0.00 | 0.00 | 0.01 | 99 | 1015.5 |
| 20260905003742 | 78 | 225 | 0.0 | 0.0 | 0.00 | 0.00 | 0.01 | 99 | 1015.5 |
| 20260905003312 | 78 | 270 | 0.0 | 0.0 | 0.00 | 0.00 | 0.01 | 99 | 1015.2 |
| 20260905002856 | 79 | 270 | 0.9 | 1.7 | 0.00 | 0.00 | 0.01 | 99 | 1015.2 |
| 20260905002439 | 79 | 0 | 1.7 | 1.7 | 0.00 | 0.00 | 0.01 | 99 | 1015.2 |
| 20260905002024 | 79 | 0 | 1.7 | 2.6 | 0.00 | 0.00 | 0.01 | 99 | 1015.2 |
| 20260905001609 | 79 | 225 | 0.0 | 0.0 | 0.00 | 0.00 | 0.01 | 99 | 1014.9 |
| 20260905001152 | 79 | 203 | 0.0 | 0.0 | 0.00 | 0.00 | 0.01 | 99 | 1015.2 |
| 20260905000735 | 80 | 270 | 0.0 | 0.0 | 0.00 | 0.00 | 0.01 | 98 | 1015.2 |
| 20260905000318 | 80 | 248 | 0.0 | 1.7 | 0.00 | 0.00 | 0.01 | 98 | 1015.5 |
| 20260904235856 | 80 | 180 | 0.9 | 1.7 | 0.00 | 0.00 | 0.01 | 97 | 1015.9 |
| 20260904235425 | 80 | 270 | 1.7 | 1.7 | 0.00 | 0.00 | 0.01 | 96 | 1015.9 |